sensor_id;sensor_type;location;lat;lon;timestamp;temperature;humidity
7077;DHT22;3579;48.956;9.154;2022-09-09T00:00:20;24.70;53.30
7077;DHT22;3579;48.956;9.154;2022-09-09T00:03:02;24.70;52.80
7077;DHT22;3579;48.956;9.154;2022-09-09T00:05:40;24.60;52.80
7077;DHT22;3579;48.956;9.154;2022-09-09T00:08:18;24.60;53.50
7077;DHT22;3579;48.956;9.154;2022-09-09T00:10:52;24.60;52.90
7077;DHT22;3579;48.956;9.154;2022-09-09T00:13:46;24.60;52.80
7077;DHT22;3579;48.956;9.154;2022-09-09T00:19:01;24.60;52.80
7077;DHT22;3579;48.956;9.154;2022-09-09T00:21:43;24.70;52.90
7077;DHT22;3579;48.956;9.154;2022-09-09T00:26:49;24.60;53.00
7077;DHT22;3579;48.956;9.154;2022-09-09T00:29:43;24.60;53.00
7077;DHT22;3579;48.956;9.154;2022-09-09T00:32:16;24.50;52.90
7077;DHT22;3579;48.956;9.154;2022-09-09T00:34:51;24.50;53.00
7077;DHT22;3579;48.956;9.154;2022-09-09T00:37:19;24.50;53.00
7077;DHT22;3579;48.956;9.154;2022-09-09T00:39:47;24.50;53.00
7077;DHT22;3579;48.956;9.154;2022-09-09T00:44:51;24.50;52.90
7077;DHT22;3579;48.956;9.154;2022-09-09T00:47:46;24.50;52.90
7077;DHT22;3579;48.956;9.154;2022-09-09T00:50:44;24.50;53.00
7077;DHT22;3579;48.956;9.154;2022-09-09T00:53:16;24.50;52.90
7077;DHT22;3579;48.956;9.154;2022-09-09T00:58:32;24.50;53.00
7077;DHT22;3579;48.956;9.154;2022-09-09T01:01:02;24.50;53.00
7077;DHT22;3579;48.956;9.154;2022-09-09T01:06:29;24.50;53.10
7077;DHT22;3579;48.956;9.154;2022-09-09T01:09:14;24.50;53.10
7077;DHT22;3579;48.956;9.154;2022-09-09T01:16:40;24.50;53.10
7077;DHT22;3579;48.956;9.154;2022-09-09T01:19:10;24.50;53.10
7077;DHT22;3579;48.956;9.154;2022-09-09T01:22:24;24.50;53.10
7077;DHT22;3579;48.956;9.154;2022-09-09T01:27:37;24.50;53.10
7077;DHT22;3579;48.956;9.154;2022-09-09T01:30:10;24.40;53.10
7077;DHT22;3579;48.956;9.154;2022-09-09T01:35:04;24.50;53.00
7077;DHT22;3579;48.956;9.154;2022-09-09T01:37:31;24.50;53.10
7077;DHT22;3579;48.956;9.154;2022-09-09T01:39:57;24.40;53.00
7077;DHT22;3579;48.956;9.154;2022-09-09T01:42:23;24.40;53.10
7077;DHT22;3579;48.956;9.154;2022-09-09T01:44:49;24.40;53.10
7077;DHT22;3579;48.956;9.154;2022-09-09T01:47:15;24.50;53.10
7077;DHT22;3579;48.956;9.154;2022-09-09T01:49:41;24.40;53.00
7077;DHT22;3579;48.956;9.154;2022-09-09T01:52:07;24.40;53.00
7077;DHT22;3579;48.956;9.154;2022-09-09T01:54:35;24.40;53.10
7077;DHT22;3579;48.956;9.154;2022-09-09T01:57:29;24.40;53.20
7077;DHT22;3579;48.956;9.154;2022-09-09T02:00:11;24.40;53.10
7077;DHT22;3579;48.956;9.154;2022-09-09T02:08:11;24.40;53.20
7077;DHT22;3579;48.956;9.154;2022-09-09T02:10:43;24.40;53.20
7077;DHT22;3579;48.956;9.154;2022-09-09T02:13:13;24.30;53.20
7077;DHT22;3579;48.956;9.154;2022-09-09T02:15:56;24.40;53.10
7077;DHT22;3579;48.956;9.154;2022-09-09T02:18:34;24.40;53.20
7077;DHT22;3579;48.956;9.154;2022-09-09T02:21:02;24.40;53.80
7077;DHT22;3579;48.956;9.154;2022-09-09T02:23:28;24.40;53.20
7077;DHT22;3579;48.956;9.154;2022-09-09T02:25:56;24.40;53.20
7077;DHT22;3579;48.956;9.154;2022-09-09T02:28:26;24.40;53.20
7077;DHT22;3579;48.956;9.154;2022-09-09T02:30:53;24.40;53.20
7077;DHT22;3579;48.956;9.154;2022-09-09T02:33:26;24.30;53.20
7077;DHT22;3579;48.956;9.154;2022-09-09T02:35:54;24.30;53.30
7077;DHT22;3579;48.956;9.154;2022-09-09T02:38:25;24.40;53.20
7077;DHT22;3579;48.956;9.154;2022-09-09T02:40:54;24.40;53.80
7077;DHT22;3579;48.956;9.154;2022-09-09T02:43:20;24.30;53.20
7077;DHT22;3579;48.956;9.154;2022-09-09T02:46:00;24.40;53.30
7077;DHT22;3579;48.956;9.154;2022-09-09T02:49:03;24.40;53.20
7077;DHT22;3579;48.956;9.154;2022-09-09T02:52:06;24.30;53.20
7077;DHT22;3579;48.956;9.154;2022-09-09T02:54:37;24.30;53.30
7077;DHT22;3579;48.956;9.154;2022-09-09T02:59:37;24.30;53.30
7077;DHT22;3579;48.956;9.154;2022-09-09T03:02:03;24.20;53.30
7077;DHT22;3579;48.956;9.154;2022-09-09T03:04:29;24.30;53.40
7077;DHT22;3579;48.956;9.154;2022-09-09T03:06:58;24.20;53.30
7077;DHT22;3579;48.956;9.154;2022-09-09T03:09:24;24.20;53.40
7077;DHT22;3579;48.956;9.154;2022-09-09T03:11:52;24.20;53.40
7077;DHT22;3579;48.956;9.154;2022-09-09T03:14:18;24.20;53.40
7077;DHT22;3579;48.956;9.154;2022-09-09T03:16:47;24.20;53.40
7077;DHT22;3579;48.956;9.154;2022-09-09T03:19:14;24.20;54.00
7077;DHT22;3579;48.956;9.154;2022-09-09T03:21:40;24.20;53.40
7077;DHT22;3579;48.956;9.154;2022-09-09T03:24:06;24.20;53.40
7077;DHT22;3579;48.956;9.154;2022-09-09T03:26:32;24.20;53.40
7077;DHT22;3579;48.956;9.154;2022-09-09T03:28:58;24.20;53.40
7077;DHT22;3579;48.956;9.154;2022-09-09T03:31:26;24.20;53.50
7077;DHT22;3579;48.956;9.154;2022-09-09T03:33:57;24.20;53.60
7077;DHT22;3579;48.956;9.154;2022-09-09T03:36:27;24.20;53.50
7077;DHT22;3579;48.956;9.154;2022-09-09T03:38:54;24.20;53.50
7077;DHT22;3579;48.956;9.154;2022-09-09T03:41:22;24.20;53.50
7077;DHT22;3579;48.956;9.154;2022-09-09T03:43:50;24.20;53.50
7077;DHT22;3579;48.956;9.154;2022-09-09T03:46:18;24.20;53.40
7077;DHT22;3579;48.956;9.154;2022-09-09T03:48:44;24.20;53.50
7077;DHT22;3579;48.956;9.154;2022-09-09T03:51:10;24.10;53.50
7077;DHT22;3579;48.956;9.154;2022-09-09T03:53:36;24.10;53.50
7077;DHT22;3579;48.956;9.154;2022-09-09T03:56:04;24.10;53.60
7077;DHT22;3579;48.956;9.154;2022-09-09T03:58:33;24.10;53.60
7077;DHT22;3579;48.956;9.154;2022-09-09T04:01:11;24.10;53.50
7077;DHT22;3579;48.956;9.154;2022-09-09T04:03:40;24.10;53.50
7077;DHT22;3579;48.956;9.154;2022-09-09T04:06:07;24.10;53.50
7077;DHT22;3579;48.956;9.154;2022-09-09T04:08:35;24.10;53.50
7077;DHT22;3579;48.956;9.154;2022-09-09T04:11:02;24.10;53.50
7077;DHT22;3579;48.956;9.154;2022-09-09T04:13:33;24.10;53.60
7077;DHT22;3579;48.956;9.154;2022-09-09T04:16:01;24.10;53.50
7077;DHT22;3579;48.956;9.154;2022-09-09T04:18:28;24.10;53.60
7077;DHT22;3579;48.956;9.154;2022-09-09T04:20:54;24.10;53.60
7077;DHT22;3579;48.956;9.154;2022-09-09T04:23:24;24.00;53.60
7077;DHT22;3579;48.956;9.154;2022-09-09T04:25:52;24.00;53.60
7077;DHT22;3579;48.956;9.154;2022-09-09T04:28:20;24.00;53.60
7077;DHT22;3579;48.956;9.154;2022-09-09T04:30:47;24.00;53.60
7077;DHT22;3579;48.956;9.154;2022-09-09T04:33:13;24.00;53.50
7077;DHT22;3579;48.956;9.154;2022-09-09T04:35:45;24.10;53.60
7077;DHT22;3579;48.956;9.154;2022-09-09T04:38:11;24.10;53.60
7077;DHT22;3579;48.956;9.154;2022-09-09T04:40:37;24.00;53.60
7077;DHT22;3579;48.956;9.154;2022-09-09T04:43:06;24.10;53.70
7077;DHT22;3579;48.956;9.154;2022-09-09T04:45:32;24.00;53.60
7077;DHT22;3579;48.956;9.154;2022-09-09T04:47:59;24.00;53.70
7077;DHT22;3579;48.956;9.154;2022-09-09T04:50:25;24.00;53.70
7077;DHT22;3579;48.956;9.154;2022-09-09T04:52:51;24.00;53.70
7077;DHT22;3579;48.956;9.154;2022-09-09T04:55:17;24.00;53.70
7077;DHT22;3579;48.956;9.154;2022-09-09T04:57:44;24.00;53.80
7077;DHT22;3579;48.956;9.154;2022-09-09T05:00:11;24.00;53.70
7077;DHT22;3579;48.956;9.154;2022-09-09T05:02:39;24.00;53.80
7077;DHT22;3579;48.956;9.154;2022-09-09T05:05:06;24.00;53.80
7077;DHT22;3579;48.956;9.154;2022-09-09T05:07:32;24.00;53.80
7077;DHT22;3579;48.956;9.154;2022-09-09T05:09:58;23.90;53.60
7077;DHT22;3579;48.956;9.154;2022-09-09T05:12:24;23.90;53.70
7077;DHT22;3579;48.956;9.154;2022-09-09T05:14:54;24.00;53.70
7077;DHT22;3579;48.956;9.154;2022-09-09T05:17:20;24.00;53.60
7077;DHT22;3579;48.956;9.154;2022-09-09T05:19:45;24.00;53.60
7077;DHT22;3579;48.956;9.154;2022-09-09T05:22:11;23.90;53.50
7077;DHT22;3579;48.956;9.154;2022-09-09T05:24:38;23.80;53.80
7077;DHT22;3579;48.956;9.154;2022-09-09T05:27:05;23.70;53.90
7077;DHT22;3579;48.956;9.154;2022-09-09T05:29:32;23.60;54.10
7077;DHT22;3579;48.956;9.154;2022-09-09T05:32:01;23.70;54.10
7077;DHT22;3579;48.956;9.154;2022-09-09T05:34:27;23.70;53.80
7077;DHT22;3579;48.956;9.154;2022-09-09T05:36:54;23.80;53.70
7077;DHT22;3579;48.956;9.154;2022-09-09T05:39:21;23.80;53.70
7077;DHT22;3579;48.956;9.154;2022-09-09T05:41:47;23.90;53.60
7077;DHT22;3579;48.956;9.154;2022-09-09T05:44:13;23.90;53.40
7077;DHT22;3579;48.956;9.154;2022-09-09T05:46:40;24.00;53.40
7077;DHT22;3579;48.956;9.154;2022-09-09T05:49:06;24.00;53.30
7077;DHT22;3579;48.956;9.154;2022-09-09T05:51:32;24.00;53.40
7077;DHT22;3579;48.956;9.154;2022-09-09T05:53:58;24.00;53.30
7077;DHT22;3579;48.956;9.154;2022-09-09T05:56:27;24.00;53.10
7077;DHT22;3579;48.956;9.154;2022-09-09T05:58:54;24.10;53.20
7077;DHT22;3579;48.956;9.154;2022-09-09T06:01:23;24.10;53.00
7077;DHT22;3579;48.956;9.154;2022-09-09T06:03:50;24.20;53.00
7077;DHT22;3579;48.956;9.154;2022-09-09T06:06:19;24.30;52.80
7077;DHT22;3579;48.956;9.154;2022-09-09T06:08:50;24.20;52.80
7077;DHT22;3579;48.956;9.154;2022-09-09T06:11:22;24.20;52.90
7077;DHT22;3579;48.956;9.154;2022-09-09T06:13:49;24.10;52.90
7077;DHT22;3579;48.956;9.154;2022-09-09T06:16:21;24.10;53.00
7077;DHT22;3579;48.956;9.154;2022-09-09T06:18:49;24.10;53.00
7077;DHT22;3579;48.956;9.154;2022-09-09T06:21:19;24.10;52.90
7077;DHT22;3579;48.956;9.154;2022-09-09T06:23:46;24.10;53.00
7077;DHT22;3579;48.956;9.154;2022-09-09T06:26:16;24.10;53.00
7077;DHT22;3579;48.956;9.154;2022-09-09T06:28:46;24.10;53.00
7077;DHT22;3579;48.956;9.154;2022-09-09T06:31:16;24.20;52.90
7077;DHT22;3579;48.956;9.154;2022-09-09T06:33:43;24.20;52.80
7077;DHT22;3579;48.956;9.154;2022-09-09T06:36:15;24.20;52.80
7077;DHT22;3579;48.956;9.154;2022-09-09T06:38:42;24.20;53.30
7077;DHT22;3579;48.956;9.154;2022-09-09T06:41:09;24.20;52.70
7077;DHT22;3579;48.956;9.154;2022-09-09T06:43:36;24.20;52.70
7077;DHT22;3579;48.956;9.154;2022-09-09T06:46:05;24.20;52.70
7077;DHT22;3579;48.956;9.154;2022-09-09T06:48:31;24.20;52.70
7077;DHT22;3579;48.956;9.154;2022-09-09T06:51:06;24.20;52.70
7077;DHT22;3579;48.956;9.154;2022-09-09T06:53:34;24.30;52.80
7077;DHT22;3579;48.956;9.154;2022-09-09T06:56:02;24.30;52.70
7077;DHT22;3579;48.956;9.154;2022-09-09T06:58:28;24.30;52.70
7077;DHT22;3579;48.956;9.154;2022-09-09T07:01:05;24.20;52.70
7077;DHT22;3579;48.956;9.154;2022-09-09T07:03:32;24.30;52.70
7077;DHT22;3579;48.956;9.154;2022-09-09T07:05:59;24.30;52.70
7077;DHT22;3579;48.956;9.154;2022-09-09T07:08:25;24.30;52.70
7077;DHT22;3579;48.956;9.154;2022-09-09T07:10:53;24.30;52.70
7077;DHT22;3579;48.956;9.154;2022-09-09T07:13:25;24.30;52.70
7077;DHT22;3579;48.956;9.154;2022-09-09T07:15:53;24.30;52.60
7077;DHT22;3579;48.956;9.154;2022-09-09T07:18:19;24.30;52.50
7077;DHT22;3579;48.956;9.154;2022-09-09T07:20:53;24.40;52.50
7077;DHT22;3579;48.956;9.154;2022-09-09T07:23:20;24.40;52.50
7077;DHT22;3579;48.956;9.154;2022-09-09T07:25:47;24.40;52.50
7077;DHT22;3579;48.956;9.154;2022-09-09T07:28:14;24.40;52.50
7077;DHT22;3579;48.956;9.154;2022-09-09T07:30:40;24.40;52.40
7077;DHT22;3579;48.956;9.154;2022-09-09T07:33:07;24.40;52.30
7077;DHT22;3579;48.956;9.154;2022-09-09T07:35:33;24.50;52.40
7077;DHT22;3579;48.956;9.154;2022-09-09T07:38:01;24.40;52.30
7077;DHT22;3579;48.956;9.154;2022-09-09T07:40:27;24.50;52.30
7077;DHT22;3579;48.956;9.154;2022-09-09T07:42:54;24.40;52.10
7077;DHT22;3579;48.956;9.154;2022-09-09T07:45:20;24.30;52.20
7077;DHT22;3579;48.956;9.154;2022-09-09T07:47:46;24.20;52.30
7077;DHT22;3579;48.956;9.154;2022-09-09T07:50:14;24.30;52.10
7077;DHT22;3579;48.956;9.154;2022-09-09T07:52:40;24.20;52.20
7077;DHT22;3579;48.956;9.154;2022-09-09T07:55:07;24.10;52.30
7077;DHT22;3579;48.956;9.154;2022-09-09T07:57:33;24.00;52.40
7077;DHT22;3579;48.956;9.154;2022-09-09T07:59:59;23.90;52.60
7077;DHT22;3579;48.956;9.154;2022-09-09T08:02:25;23.80;52.90
7077;DHT22;3579;48.956;9.154;2022-09-09T08:04:53;23.80;53.00
7077;DHT22;3579;48.956;9.154;2022-09-09T08:07:20;23.90;52.90
7077;DHT22;3579;48.956;9.154;2022-09-09T08:09:47;24.00;52.70
7077;DHT22;3579;48.956;9.154;2022-09-09T08:12:13;24.10;52.60
7077;DHT22;3579;48.956;9.154;2022-09-09T08:14:40;24.20;52.30
7077;DHT22;3579;48.956;9.154;2022-09-09T08:17:07;24.20;52.20
7077;DHT22;3579;48.956;9.154;2022-09-09T08:19:33;24.20;52.10
7077;DHT22;3579;48.956;9.154;2022-09-09T08:22:02;24.20;52.00
7077;DHT22;3579;48.956;9.154;2022-09-09T08:24:29;24.30;51.70
7077;DHT22;3579;48.956;9.154;2022-09-09T08:26:55;24.20;51.70
7077;DHT22;3579;48.956;9.154;2022-09-09T08:29:23;24.20;51.70
7077;DHT22;3579;48.956;9.154;2022-09-09T08:31:51;24.20;51.50
7077;DHT22;3579;48.956;9.154;2022-09-09T08:34:21;24.20;51.60
7077;DHT22;3579;48.956;9.154;2022-09-09T08:36:49;24.20;51.80
7077;DHT22;3579;48.956;9.154;2022-09-09T08:39:17;24.20;51.60
7077;DHT22;3579;48.956;9.154;2022-09-09T08:47:09;24.40;51.40
7077;DHT22;3579;48.956;9.154;2022-09-09T08:53:22;24.50;50.80
7077;DHT22;3579;48.956;9.154;2022-09-09T08:56:18;24.50;50.90
7077;DHT22;3579;48.956;9.154;2022-09-09T08:58:49;24.40;50.80
7077;DHT22;3579;48.956;9.154;2022-09-09T09:07:28;24.50;50.90
7077;DHT22;3579;48.956;9.154;2022-09-09T09:10:14;24.60;50.90
7077;DHT22;3579;48.956;9.154;2022-09-09T09:12:43;24.70;50.60
7077;DHT22;3579;48.956;9.154;2022-09-09T09:15:30;24.60;50.50
7077;DHT22;3579;48.956;9.154;2022-09-09T09:17:57;24.40;50.50
7077;DHT22;3579;48.956;9.154;2022-09-09T09:21:15;24.40;50.90
7077;DHT22;3579;48.956;9.154;2022-09-09T09:23:26;24.40;50.80
7077;DHT22;3579;48.956;9.154;2022-09-09T09:26:00;24.50;50.10
7077;DHT22;3579;48.956;9.154;2022-09-09T09:28:32;24.50;50.20
7077;DHT22;3579;48.956;9.154;2022-09-09T09:31:04;24.50;50.00
7077;DHT22;3579;48.956;9.154;2022-09-09T09:33:46;24.70;49.60
7077;DHT22;3579;48.956;9.154;2022-09-09T09:36:15;24.80;48.80
7077;DHT22;3579;48.956;9.154;2022-09-09T09:38:56;24.90;48.10
7077;DHT22;3579;48.956;9.154;2022-09-09T09:41:40;24.90;48.50
7077;DHT22;3579;48.956;9.154;2022-09-09T09:44:39;25.00;48.70
7077;DHT22;3579;48.956;9.154;2022-09-09T09:52:26;25.30;48.50
7077;DHT22;3579;48.956;9.154;2022-09-09T09:54:58;25.40;48.60
7077;DHT22;3579;48.956;9.154;2022-09-09T09:57:30;25.40;48.60
7077;DHT22;3579;48.956;9.154;2022-09-09T10:02:46;25.50;47.30
7077;DHT22;3579;48.956;9.154;2022-09-09T10:05:22;25.40;46.80
7077;DHT22;3579;48.956;9.154;2022-09-09T10:19:05;24.80;48.60
7077;DHT22;3579;48.956;9.154;2022-09-09T10:30:27;24.10;51.20
7077;DHT22;3579;48.956;9.154;2022-09-09T10:33:08;23.90;51.80
7077;DHT22;3579;48.956;9.154;2022-09-09T10:41:53;24.20;51.10
7077;DHT22;3579;48.956;9.154;2022-09-09T10:44:14;24.50;50.70
7077;DHT22;3579;48.956;9.154;2022-09-09T11:00:22;25.00;49.60
7077;DHT22;3579;48.956;9.154;2022-09-09T11:03:02;25.00;49.60
7077;DHT22;3579;48.956;9.154;2022-09-09T11:05:45;25.00;49.60
7077;DHT22;3579;48.956;9.154;2022-09-09T11:08:19;25.10;49.70
7077;DHT22;3579;48.956;9.154;2022-09-09T11:10:54;25.10;49.60
7077;DHT22;3579;48.956;9.154;2022-09-09T11:14:05;25.10;49.50
7077;DHT22;3579;48.956;9.154;2022-09-09T11:19:24;25.30;49.30
7077;DHT22;3579;48.956;9.154;2022-09-09T11:21:53;25.20;49.40
7077;DHT22;3579;48.956;9.154;2022-09-09T11:24:56;25.30;48.90
7077;DHT22;3579;48.956;9.154;2022-09-09T11:27:31;25.30;48.80
7077;DHT22;3579;48.956;9.154;2022-09-09T11:38:27;25.10;49.80
7077;DHT22;3579;48.956;9.154;2022-09-09T11:40:59;24.90;49.80
7077;DHT22;3579;48.956;9.154;2022-09-09T11:43:33;25.00;49.60
7077;DHT22;3579;48.956;9.154;2022-09-09T11:46:04;25.10;49.10
7077;DHT22;3579;48.956;9.154;2022-09-09T11:48:57;25.20;48.60
7077;DHT22;3579;48.956;9.154;2022-09-09T11:53:55;25.20;48.10
7077;DHT22;3579;48.956;9.154;2022-09-09T11:56:41;25.20;48.20
7077;DHT22;3579;48.956;9.154;2022-09-09T11:59:27;25.20;48.10
7077;DHT22;3579;48.956;9.154;2022-09-09T12:02:12;25.20;48.10
7077;DHT22;3579;48.956;9.154;2022-09-09T12:04:53;25.30;48.10
7077;DHT22;3579;48.956;9.154;2022-09-09T12:07:41;25.30;48.00
7077;DHT22;3579;48.956;9.154;2022-09-09T12:10:34;25.30;47.90
7077;DHT22;3579;48.956;9.154;2022-09-09T12:13:18;25.40;47.90
7077;DHT22;3579;48.956;9.154;2022-09-09T12:16:03;25.50;47.90
7077;DHT22;3579;48.956;9.154;2022-09-09T12:18:34;25.50;47.80
7077;DHT22;3579;48.956;9.154;2022-09-09T12:24:08;25.60;47.80
7077;DHT22;3579;48.956;9.154;2022-09-09T12:26:43;25.60;47.60
7077;DHT22;3579;48.956;9.154;2022-09-09T12:34:49;25.80;47.50
7077;DHT22;3579;48.956;9.154;2022-09-09T12:40:05;25.80;47.50
7077;DHT22;3579;48.956;9.154;2022-09-09T12:42:32;25.80;47.40
7077;DHT22;3579;48.956;9.154;2022-09-09T12:45:03;25.80;47.30
7077;DHT22;3579;48.956;9.154;2022-09-09T12:47:51;25.80;47.20
7077;DHT22;3579;48.956;9.154;2022-09-09T12:50:22;25.80;47.20
7077;DHT22;3579;48.956;9.154;2022-09-09T12:52:56;25.80;47.10
7077;DHT22;3579;48.956;9.154;2022-09-09T12:55:28;25.80;47.20
7077;DHT22;3579;48.956;9.154;2022-09-09T12:57:56;25.80;47.20
7077;DHT22;3579;48.956;9.154;2022-09-09T13:00:24;25.80;47.20
7077;DHT22;3579;48.956;9.154;2022-09-09T13:07:50;25.80;46.70
7077;DHT22;3579;48.956;9.154;2022-09-09T13:10:26;25.90;46.40
7077;DHT22;3579;48.956;9.154;2022-09-09T13:12:53;25.90;46.20
7077;DHT22;3579;48.956;9.154;2022-09-09T13:15:22;25.90;46.40
7077;DHT22;3579;48.956;9.154;2022-09-09T13:17:56;25.90;46.30
7077;DHT22;3579;48.956;9.154;2022-09-09T13:20:23;25.90;46.30
7077;DHT22;3579;48.956;9.154;2022-09-09T13:22:51;25.90;46.40
7077;DHT22;3579;48.956;9.154;2022-09-09T13:28:00;25.90;46.40
7077;DHT22;3579;48.956;9.154;2022-09-09T13:30:33;25.90;46.50
7077;DHT22;3579;48.956;9.154;2022-09-09T13:33:20;25.90;46.60
7077;DHT22;3579;48.956;9.154;2022-09-09T13:35:55;25.90;46.60
7077;DHT22;3579;48.956;9.154;2022-09-09T13:38:21;26.00;46.60
7077;DHT22;3579;48.956;9.154;2022-09-09T13:40:59;26.00;46.60
7077;DHT22;3579;48.956;9.154;2022-09-09T13:43:29;26.00;46.60
7077;DHT22;3579;48.956;9.154;2022-09-09T13:45:59;26.00;46.50
7077;DHT22;3579;48.956;9.154;2022-09-09T13:48:26;26.00;46.50
7077;DHT22;3579;48.956;9.154;2022-09-09T13:51:03;26.00;46.30
7077;DHT22;3579;48.956;9.154;2022-09-09T13:53:32;26.00;46.30
7077;DHT22;3579;48.956;9.154;2022-09-09T13:55:59;26.10;46.10
7077;DHT22;3579;48.956;9.154;2022-09-09T13:58:25;26.10;46.20
7077;DHT22;3579;48.956;9.154;2022-09-09T14:00:52;26.10;46.30
7077;DHT22;3579;48.956;9.154;2022-09-09T14:03:19;26.00;46.20
7077;DHT22;3579;48.956;9.154;2022-09-09T14:05:46;26.10;46.00
7077;DHT22;3579;48.956;9.154;2022-09-09T14:08:22;26.10;45.90
7077;DHT22;3579;48.956;9.154;2022-09-09T14:10:49;26.10;45.80
7077;DHT22;3579;48.956;9.154;2022-09-09T14:13:16;26.10;45.90
7077;DHT22;3579;48.956;9.154;2022-09-09T14:15:42;26.10;45.90
7077;DHT22;3579;48.956;9.154;2022-09-09T14:18:13;26.10;45.90
7077;DHT22;3579;48.956;9.154;2022-09-09T14:20:39;26.10;45.90
7077;DHT22;3579;48.956;9.154;2022-09-09T14:23:07;26.10;45.90
7077;DHT22;3579;48.956;9.154;2022-09-09T14:25:35;26.10;45.80
7077;DHT22;3579;48.956;9.154;2022-09-09T14:28:02;26.10;45.80
7077;DHT22;3579;48.956;9.154;2022-09-09T14:30:28;26.10;45.70
7077;DHT22;3579;48.956;9.154;2022-09-09T14:32:54;26.10;45.60
7077;DHT22;3579;48.956;9.154;2022-09-09T14:35:20;26.10;45.50
7077;DHT22;3579;48.956;9.154;2022-09-09T14:37:48;26.10;45.50
7077;DHT22;3579;48.956;9.154;2022-09-09T14:40:14;26.10;45.60
7077;DHT22;3579;48.956;9.154;2022-09-09T14:42:41;26.10;45.70
7077;DHT22;3579;48.956;9.154;2022-09-09T14:45:07;26.10;45.80
7077;DHT22;3579;48.956;9.154;2022-09-09T14:47:33;26.10;45.80
7077;DHT22;3579;48.956;9.154;2022-09-09T14:49:59;26.10;45.70
7077;DHT22;3579;48.956;9.154;2022-09-09T14:52:26;26.10;45.60
7077;DHT22;3579;48.956;9.154;2022-09-09T14:54:52;26.10;45.60
7077;DHT22;3579;48.956;9.154;2022-09-09T14:57:18;26.10;45.50
7077;DHT22;3579;48.956;9.154;2022-09-09T14:59:45;26.10;45.50
7077;DHT22;3579;48.956;9.154;2022-09-09T15:02:17;26.10;45.60
7077;DHT22;3579;48.956;9.154;2022-09-09T15:04:43;26.10;45.40
7077;DHT22;3579;48.956;9.154;2022-09-09T15:07:10;26.10;45.30
7077;DHT22;3579;48.956;9.154;2022-09-09T15:09:36;26.10;45.30
7077;DHT22;3579;48.956;9.154;2022-09-09T15:12:03;26.10;45.50
7077;DHT22;3579;48.956;9.154;2022-09-09T15:14:30;26.10;45.40
7077;DHT22;3579;48.956;9.154;2022-09-09T15:16:56;26.10;45.40
7077;DHT22;3579;48.956;9.154;2022-09-09T15:19:22;26.10;44.90
7077;DHT22;3579;48.956;9.154;2022-09-09T15:21:49;26.10;44.80
7077;DHT22;3579;48.956;9.154;2022-09-09T15:24:15;26.10;45.30
7077;DHT22;3579;48.956;9.154;2022-09-09T15:26:41;26.10;44.50
7077;DHT22;3579;48.956;9.154;2022-09-09T15:29:08;26.10;44.40
7077;DHT22;3579;48.956;9.154;2022-09-09T15:31:37;26.10;44.20
7077;DHT22;3579;48.956;9.154;2022-09-09T15:34:06;26.10;44.00
7077;DHT22;3579;48.956;9.154;2022-09-09T15:36:36;26.10;43.90
7077;DHT22;3579;48.956;9.154;2022-09-09T15:39:05;26.10;44.00
7077;DHT22;3579;48.956;9.154;2022-09-09T15:41:32;26.10;43.90
7077;DHT22;3579;48.956;9.154;2022-09-09T15:43:59;26.10;43.90
7077;DHT22;3579;48.956;9.154;2022-09-09T15:51:29;26.00;43.80
7077;DHT22;3579;48.956;9.154;2022-09-09T15:53:57;26.00;43.70
7077;DHT22;3579;48.956;9.154;2022-09-09T15:56:24;26.00;44.30
7077;DHT22;3579;48.956;9.154;2022-09-09T15:58:51;26.00;43.80
7077;DHT22;3579;48.956;9.154;2022-09-09T16:01:18;25.90;43.90
7077;DHT22;3579;48.956;9.154;2022-09-09T16:03:45;25.90;43.80
7077;DHT22;3579;48.956;9.154;2022-09-09T16:06:13;25.90;43.90
7077;DHT22;3579;48.956;9.154;2022-09-09T16:08:42;25.90;44.00
7077;DHT22;3579;48.956;9.154;2022-09-09T16:11:11;25.90;44.00
7077;DHT22;3579;48.956;9.154;2022-09-09T16:13:43;25.80;44.10
7077;DHT22;3579;48.956;9.154;2022-09-09T16:16:11;25.80;44.20
7077;DHT22;3579;48.956;9.154;2022-09-09T16:18:47;25.80;44.40
7077;DHT22;3579;48.956;9.154;2022-09-09T16:21:19;25.80;44.30
7077;DHT22;3579;48.956;9.154;2022-09-09T16:23:46;25.80;44.30
7077;DHT22;3579;48.956;9.154;2022-09-09T16:26:14;25.80;44.60
7077;DHT22;3579;48.956;9.154;2022-09-09T16:28:42;25.80;44.70
7077;DHT22;3579;48.956;9.154;2022-09-09T16:31:11;25.80;44.80
7077;DHT22;3579;48.956;9.154;2022-09-09T16:33:40;25.70;45.10
7077;DHT22;3579;48.956;9.154;2022-09-09T16:36:14;25.70;45.10
7077;DHT22;3579;48.956;9.154;2022-09-09T16:38:41;25.70;45.20
7077;DHT22;3579;48.956;9.154;2022-09-09T16:41:10;25.70;45.40
7077;DHT22;3579;48.956;9.154;2022-09-09T16:43:36;25.60;45.50
7077;DHT22;3579;48.956;9.154;2022-09-09T16:46:10;25.60;45.50
7077;DHT22;3579;48.956;9.154;2022-09-09T16:48:37;25.60;45.60
7077;DHT22;3579;48.956;9.154;2022-09-09T16:51:08;25.60;45.60
7077;DHT22;3579;48.956;9.154;2022-09-09T16:53:37;25.60;45.70
7077;DHT22;3579;48.956;9.154;2022-09-09T16:56:06;25.60;45.80
7077;DHT22;3579;48.956;9.154;2022-09-09T16:58:33;25.50;45.80
7077;DHT22;3579;48.956;9.154;2022-09-09T17:01:00;25.50;45.90
7077;DHT22;3579;48.956;9.154;2022-09-09T17:03:27;25.50;46.00
7077;DHT22;3579;48.956;9.154;2022-09-09T17:05:53;25.50;46.10
7077;DHT22;3579;48.956;9.154;2022-09-09T17:08:19;25.50;46.20
7077;DHT22;3579;48.956;9.154;2022-09-09T17:10:46;25.50;46.20
7077;DHT22;3579;48.956;9.154;2022-09-09T17:13:13;25.50;46.20
7077;DHT22;3579;48.956;9.154;2022-09-09T17:15:40;25.50;46.30
7077;DHT22;3579;48.956;9.154;2022-09-09T17:18:11;25.50;46.40
7077;DHT22;3579;48.956;9.154;2022-09-09T17:20:38;25.50;46.40
7077;DHT22;3579;48.956;9.154;2022-09-09T17:23:08;25.50;46.50
7077;DHT22;3579;48.956;9.154;2022-09-09T17:25:35;25.50;46.50
7077;DHT22;3579;48.956;9.154;2022-09-09T17:28:02;25.50;46.60
7077;DHT22;3579;48.956;9.154;2022-09-09T17:30:33;25.40;46.60
7077;DHT22;3579;48.956;9.154;2022-09-09T17:33:00;25.40;46.70
7077;DHT22;3579;48.956;9.154;2022-09-09T17:35:26;25.40;46.80
7077;DHT22;3579;48.956;9.154;2022-09-09T17:37:53;25.30;46.80
7077;DHT22;3579;48.956;9.154;2022-09-09T17:40:20;25.40;46.90
7077;DHT22;3579;48.956;9.154;2022-09-09T17:42:46;25.40;47.00
7077;DHT22;3579;48.956;9.154;2022-09-09T17:45:13;25.30;47.00
7077;DHT22;3579;48.956;9.154;2022-09-09T17:47:40;25.30;47.00
7077;DHT22;3579;48.956;9.154;2022-09-09T17:50:06;25.30;47.10
7077;DHT22;3579;48.956;9.154;2022-09-09T17:52:32;25.30;47.20
7077;DHT22;3579;48.956;9.154;2022-09-09T17:54:59;25.30;47.20
7077;DHT22;3579;48.956;9.154;2022-09-09T17:57:25;25.20;47.30
7077;DHT22;3579;48.956;9.154;2022-09-09T17:59:51;25.20;47.40
7077;DHT22;3579;48.956;9.154;2022-09-09T18:02:17;25.20;47.40
7077;DHT22;3579;48.956;9.154;2022-09-09T18:04:43;25.20;47.50
7077;DHT22;3579;48.956;9.154;2022-09-09T18:07:09;25.10;47.50
7077;DHT22;3579;48.956;9.154;2022-09-09T18:09:35;25.10;47.60
7077;DHT22;3579;48.956;9.154;2022-09-09T18:12:03;25.10;47.60
7077;DHT22;3579;48.956;9.154;2022-09-09T18:14:31;25.10;47.80
7077;DHT22;3579;48.956;9.154;2022-09-09T18:16:59;25.10;47.80
7077;DHT22;3579;48.956;9.154;2022-09-09T18:19:27;25.10;47.80
7077;DHT22;3579;48.956;9.154;2022-09-09T18:21:55;25.10;47.80
7077;DHT22;3579;48.956;9.154;2022-09-09T18:24:22;25.10;47.90
7077;DHT22;3579;48.956;9.154;2022-09-09T18:26:49;25.00;47.90
7077;DHT22;3579;48.956;9.154;2022-09-09T18:29:20;25.00;47.90
7077;DHT22;3579;48.956;9.154;2022-09-09T18:31:47;25.00;48.00
7077;DHT22;3579;48.956;9.154;2022-09-09T18:34:15;25.00;48.00